sensor_id;sensor_type;location;lat;lon;timestamp;P1;durP1;ratioP1;P2;durP2;ratioP2
42186;SDS011;27858;51.414;0.018;2023-05-10T04:02:11;7.95;;;3.22;;
42186;SDS011;27858;51.414;0.018;2023-05-10T04:04:38;6.38;;;3.65;;
42186;SDS011;27858;51.414;0.018;2023-05-10T04:07:05;7.53;;;3.28;;
42186;SDS011;27858;51.414;0.018;2023-05-10T04:09:31;9.02;;;3.25;;
42186;SDS011;27858;51.414;0.018;2023-05-10T04:11:58;7.43;;;3.63;;
42186;SDS011;27858;51.414;0.018;2023-05-10T04:14:26;6.05;;;3.60;;
42186;SDS011;27858;51.414;0.018;2023-05-10T04:16:53;5.85;;;3.35;;
42186;SDS011;27858;51.414;0.018;2023-05-10T04:19:20;6.57;;;3.55;;
42186;SDS011;27858;51.414;0.018;2023-05-10T04:21:46;6.13;;;3.75;;
42186;SDS011;27858;51.414;0.018;2023-05-10T04:24:13;7.80;;;3.90;;
42186;SDS011;27858;51.414;0.018;2023-05-10T04:26:40;7.75;;;3.55;;
42186;SDS011;27858;51.414;0.018;2023-05-10T04:29:06;5.20;;;3.97;;
42186;SDS011;27858;51.414;0.018;2023-05-10T04:31:33;7.35;;;4.45;;
42186;SDS011;27858;51.414;0.018;2023-05-10T04:34:02;5.20;;;3.22;;
42186;SDS011;27858;51.414;0.018;2023-05-10T04:36:29;5.95;;;4.28;;
42186;SDS011;27858;51.414;0.018;2023-05-10T04:38:55;8.02;;;4.05;;
42186;SDS011;27858;51.414;0.018;2023-05-10T04:41:22;8.25;;;5.53;;
42186;SDS011;27858;51.414;0.018;2023-05-10T04:43:49;8.63;;;4.63;;
42186;SDS011;27858;51.414;0.018;2023-05-10T04:46:15;10.07;;;5.00;;
42186;SDS011;27858;51.414;0.018;2023-05-10T04:48:42;7.40;;;4.35;;
42186;SDS011;27858;51.414;0.018;2023-05-10T04:51:09;6.22;;;3.92;;
42186;SDS011;27858;51.414;0.018;2023-05-10T04:53:36;6.93;;;4.43;;
42186;SDS011;27858;51.414;0.018;2023-05-10T04:56:02;11.13;;;5.22;;
42186;SDS011;27858;51.414;0.018;2023-05-10T04:58:29;12.30;;;5.15;;
42186;SDS011;27858;51.414;0.018;2023-05-10T05:00:56;13.75;;;5.07;;
42186;SDS011;27858;51.414;0.018;2023-05-10T05:03:23;7.13;;;5.15;;
42186;SDS011;27858;51.414;0.018;2023-05-10T05:05:50;7.75;;;5.45;;
42186;SDS011;27858;51.414;0.018;2023-05-10T05:08:16;9.93;;;5.03;;
42186;SDS011;27858;51.414;0.018;2023-05-10T05:10:43;5.05;;;3.42;;
42186;SDS011;27858;51.414;0.018;2023-05-10T05:13:12;6.97;;;4.60;;
42186;SDS011;27858;51.414;0.018;2023-05-10T05:15:38;11.00;;;5.82;;
42186;SDS011;27858;51.414;0.018;2023-05-10T05:18:05;9.02;;;5.80;;
42186;SDS011;27858;51.414;0.018;2023-05-10T05:20:32;9.77;;;5.13;;
42186;SDS011;27858;51.414;0.018;2023-05-10T05:23:02;8.45;;;4.85;;
42186;SDS011;27858;51.414;0.018;2023-05-10T05:25:29;8.82;;;5.15;;
42186;SDS011;27858;51.414;0.018;2023-05-10T05:27:56;10.20;;;5.38;;
42186;SDS011;27858;51.414;0.018;2023-05-10T05:30:22;12.45;;;5.10;;
42186;SDS011;27858;51.414;0.018;2023-05-10T05:32:49;8.63;;;5.45;;
42186;SDS011;27858;51.414;0.018;2023-05-10T05:35:16;6.72;;;4.15;;
42186;SDS011;27858;51.414;0.018;2023-05-10T05:37:43;7.40;;;4.13;;
42186;SDS011;27858;51.414;0.018;2023-05-10T05:40:12;9.38;;;4.25;;
42186;SDS011;27858;51.414;0.018;2023-05-10T05:42:39;7.00;;;4.68;;
42186;SDS011;27858;51.414;0.018;2023-05-10T05:45:06;10.10;;;5.03;;
42186;SDS011;27858;51.414;0.018;2023-05-10T05:47:34;16.60;;;6.03;;
42186;SDS011;27858;51.414;0.018;2023-05-10T05:50:01;9.30;;;4.85;;
42186;SDS011;27858;51.414;0.018;2023-05-10T05:52:28;7.55;;;4.43;;
42186;SDS011;27858;51.414;0.018;2023-05-10T05:54:56;22.75;;;7.05;;
42186;SDS011;27858;51.414;0.018;2023-05-10T05:57:22;8.10;;;4.78;;
42186;SDS011;27858;51.414;0.018;2023-05-10T05:59:49;9.05;;;4.55;;
42186;SDS011;27858;51.414;0.018;2023-05-10T06:02:16;6.95;;;4.85;;
42186;SDS011;27858;51.414;0.018;2023-05-10T06:04:43;6.65;;;3.83;;
42186;SDS011;27858;51.414;0.018;2023-05-10T06:07:10;11.30;;;5.43;;
42186;SDS011;27858;51.414;0.018;2023-05-10T06:09:36;11.93;;;5.13;;
42186;SDS011;27858;51.414;0.018;2023-05-10T06:12:03;9.38;;;4.70;;
42186;SDS011;27858;51.414;0.018;2023-05-10T06:14:30;4.72;;;3.58;;
42186;SDS011;27858;51.414;0.018;2023-05-10T06:16:57;7.72;;;4.53;;
42186;SDS011;27858;51.414;0.018;2023-05-10T06:19:25;8.05;;;3.45;;
42186;SDS011;27858;51.414;0.018;2023-05-10T06:21:53;12.05;;;5.68;;
42186;SDS011;27858;51.414;0.018;2023-05-10T06:24:20;6.55;;;4.55;;
42186;SDS011;27858;51.414;0.018;2023-05-10T06:26:47;7.82;;;4.60;;
42186;SDS011;27858;51.414;0.018;2023-05-10T06:29:16;7.90;;;4.72;;
42186;SDS011;27858;51.414;0.018;2023-05-10T06:31:42;9.43;;;4.07;;
42186;SDS011;27858;51.414;0.018;2023-05-10T06:34:11;7.38;;;4.13;;
42186;SDS011;27858;51.414;0.018;2023-05-10T06:36:38;6.20;;;3.45;;
42186;SDS011;27858;51.414;0.018;2023-05-10T06:39:05;12.23;;;4.53;;
42186;SDS011;27858;51.414;0.018;2023-05-10T06:41:31;8.23;;;4.18;;
42186;SDS011;27858;51.414;0.018;2023-05-10T06:43:58;6.65;;;4.45;;
42186;SDS011;27858;51.414;0.018;2023-05-10T06:46:25;7.38;;;3.78;;
42186;SDS011;27858;51.414;0.018;2023-05-10T06:48:52;9.85;;;4.20;;
42186;SDS011;27858;51.414;0.018;2023-05-10T06:51:19;8.63;;;4.93;;
42186;SDS011;27858;51.414;0.018;2023-05-10T06:53:47;13.90;;;5.90;;
42186;SDS011;27858;51.414;0.018;2023-05-10T06:56:14;6.97;;;4.30;;
42186;SDS011;27858;51.414;0.018;2023-05-10T06:58:40;7.88;;;4.78;;
42186;SDS011;27858;51.414;0.018;2023-05-10T07:01:07;17.27;;;4.80;;
42186;SDS011;27858;51.414;0.018;2023-05-10T07:03:34;9.30;;;5.10;;
42186;SDS011;27858;51.414;0.018;2023-05-10T07:06:02;13.85;;;4.38;;
42186;SDS011;27858;51.414;0.018;2023-05-10T07:08:33;8.38;;;4.90;;
42186;SDS011;27858;51.414;0.018;2023-05-10T07:11:01;11.45;;;4.05;;
42186;SDS011;27858;51.414;0.018;2023-05-10T07:13:34;7.43;;;4.25;;
42186;SDS011;27858;51.414;0.018;2023-05-10T07:16:02;9.27;;;3.20;;
42186;SDS011;27858;51.414;0.018;2023-05-10T07:18:29;8.40;;;3.75;;
42186;SDS011;27858;51.414;0.018;2023-05-10T07:20:57;8.15;;;3.40;;
42186;SDS011;27858;51.414;0.018;2023-05-10T07:23:24;9.55;;;4.07;;
42186;SDS011;27858;51.414;0.018;2023-05-10T07:25:51;5.10;;;3.17;;
42186;SDS011;27858;51.414;0.018;2023-05-10T07:28:18;5.30;;;3.33;;
42186;SDS011;27858;51.414;0.018;2023-05-10T07:30:45;6.30;;;3.00;;
42186;SDS011;27858;51.414;0.018;2023-05-10T07:33:13;3.83;;;2.50;;
42186;SDS011;27858;51.414;0.018;2023-05-10T07:35:41;5.20;;;2.28;;
42186;SDS011;27858;51.414;0.018;2023-05-10T07:38:08;4.47;;;2.88;;
42186;SDS011;27858;51.414;0.018;2023-05-10T07:40:37;5.35;;;2.33;;
42186;SDS011;27858;51.414;0.018;2023-05-10T07:43:05;7.18;;;2.65;;
42186;SDS011;27858;51.414;0.018;2023-05-10T07:45:32;9.38;;;2.40;;
42186;SDS011;27858;51.414;0.018;2023-05-10T07:48:00;5.35;;;3.05;;
42186;SDS011;27858;51.414;0.018;2023-05-10T07:50:27;5.10;;;2.60;;
42186;SDS011;27858;51.414;0.018;2023-05-10T07:52:53;5.38;;;2.70;;
42186;SDS011;27858;51.414;0.018;2023-05-10T07:55:20;7.75;;;2.25;;
42186;SDS011;27858;51.414;0.018;2023-05-10T07:57:47;4.47;;;2.63;;
42186;SDS011;27858;51.414;0.018;2023-05-10T08:00:16;8.30;;;2.50;;
42186;SDS011;27858;51.414;0.018;2023-05-10T08:02:44;11.38;;;2.72;;
42186;SDS011;27858;51.414;0.018;2023-05-10T08:05:11;9.77;;;2.65;;
42186;SDS011;27858;51.414;0.018;2023-05-10T08:07:39;8.68;;;3.00;;
42186;SDS011;27858;51.414;0.018;2023-05-10T08:10:06;6.28;;;2.38;;
42186;SDS011;27858;51.414;0.018;2023-05-10T08:12:35;4.85;;;2.15;;
42186;SDS011;27858;51.414;0.018;2023-05-10T08:15:02;5.93;;;2.35;;
42186;SDS011;27858;51.414;0.018;2023-05-10T08:17:30;7.72;;;2.40;;
42186;SDS011;27858;51.414;0.018;2023-05-10T08:19:57;5.57;;;2.17;;
42186;SDS011;27858;51.414;0.018;2023-05-10T08:22:23;4.03;;;1.67;;
42186;SDS011;27858;51.414;0.018;2023-05-10T08:24:50;4.80;;;2.40;;
42186;SDS011;27858;51.414;0.018;2023-05-10T08:27:17;8.02;;;3.03;;
42186;SDS011;27858;51.414;0.018;2023-05-10T08:29:43;16.27;;;3.28;;
42186;SDS011;27858;51.414;0.018;2023-05-10T08:32:15;7.18;;;2.63;;
42186;SDS011;27858;51.414;0.018;2023-05-10T08:34:43;5.13;;;1.70;;
42186;SDS011;27858;51.414;0.018;2023-05-10T08:37:10;5.45;;;2.50;;
42186;SDS011;27858;51.414;0.018;2023-05-10T08:39:39;9.02;;;2.35;;
42186;SDS011;27858;51.414;0.018;2023-05-10T08:42:06;4.50;;;1.70;;
42186;SDS011;27858;51.414;0.018;2023-05-10T08:44:35;10.98;;;2.72;;
42186;SDS011;27858;51.414;0.018;2023-05-10T08:47:04;6.15;;;2.20;;
42186;SDS011;27858;51.414;0.018;2023-05-10T08:49:33;5.88;;;1.90;;
42186;SDS011;27858;51.414;0.018;2023-05-10T08:52:01;3.75;;;2.20;;
42186;SDS011;27858;51.414;0.018;2023-05-10T08:54:31;9.30;;;3.63;;
42186;SDS011;27858;51.414;0.018;2023-05-10T08:56:59;9.77;;;2.03;;
42186;SDS011;27858;51.414;0.018;2023-05-10T08:59:26;5.30;;;2.47;;
42186;SDS011;27858;51.414;0.018;2023-05-10T09:01:53;10.25;;;2.50;;
42186;SDS011;27858;51.414;0.018;2023-05-10T09:04:24;4.55;;;1.92;;
42186;SDS011;27858;51.414;0.018;2023-05-10T09:06:51;7.25;;;3.15;;
42186;SDS011;27858;51.414;0.018;2023-05-10T09:09:18;4.93;;;2.42;;
42186;SDS011;27858;51.414;0.018;2023-05-10T09:11:46;6.60;;;2.38;;
42186;SDS011;27858;51.414;0.018;2023-05-10T09:14:13;4.72;;;2.28;;
42186;SDS011;27858;51.414;0.018;2023-05-10T09:16:41;8.05;;;2.45;;
42186;SDS011;27858;51.414;0.018;2023-05-10T09:19:08;3.95;;;2.63;;
42186;SDS011;27858;51.414;0.018;2023-05-10T09:21:35;5.63;;;2.67;;
42186;SDS011;27858;51.414;0.018;2023-05-10T09:24:07;5.97;;;2.15;;
42186;SDS011;27858;51.414;0.018;2023-05-10T09:26:35;7.88;;;2.42;;
42186;SDS011;27858;51.414;0.018;2023-05-10T09:29:16;9.35;;;3.15;;
42186;SDS011;27858;51.414;0.018;2023-05-10T09:31:44;7.22;;;3.13;;
42186;SDS011;27858;51.414;0.018;2023-05-10T09:34:20;4.18;;;2.75;;
42186;SDS011;27858;51.414;0.018;2023-05-10T09:36:57;5.28;;;2.72;;
42186;SDS011;27858;51.414;0.018;2023-05-10T09:39:37;4.38;;;2.45;;
42186;SDS011;27858;51.414;0.018;2023-05-10T09:42:05;7.47;;;3.17;;
42186;SDS011;27858;51.414;0.018;2023-05-10T09:44:33;7.68;;;2.30;;
42186;SDS011;27858;51.414;0.018;2023-05-10T09:47:01;6.28;;;2.42;;
42186;SDS011;27858;51.414;0.018;2023-05-10T09:49:28;5.80;;;2.75;;
42186;SDS011;27858;51.414;0.018;2023-05-10T09:54:29;4.38;;;2.33;;
42186;SDS011;27858;51.414;0.018;2023-05-10T09:56:56;5.80;;;3.20;;
42186;SDS011;27858;51.414;0.018;2023-05-10T09:59:26;6.85;;;2.38;;
42186;SDS011;27858;51.414;0.018;2023-05-10T10:01:57;6.78;;;2.63;;
42186;SDS011;27858;51.414;0.018;2023-05-10T10:04:26;6.63;;;2.60;;
42186;SDS011;27858;51.414;0.018;2023-05-10T10:06:58;3.17;;;1.70;;
42186;SDS011;27858;51.414;0.018;2023-05-10T10:09:29;4.82;;;2.72;;
42186;SDS011;27858;51.414;0.018;2023-05-10T10:11:56;6.68;;;3.00;;
42186;SDS011;27858;51.414;0.018;2023-05-10T10:14:23;6.07;;;2.30;;
42186;SDS011;27858;51.414;0.018;2023-05-10T10:16:50;6.90;;;2.80;;
42186;SDS011;27858;51.414;0.018;2023-05-10T10:19:33;8.48;;;3.10;;
42186;SDS011;27858;51.414;0.018;2023-05-10T10:22:04;6.47;;;2.42;;
42186;SDS011;27858;51.414;0.018;2023-05-10T10:24:32;5.10;;;2.90;;
42186;SDS011;27858;51.414;0.018;2023-05-10T10:27:20;3.63;;;2.28;;
42186;SDS011;27858;51.414;0.018;2023-05-10T10:30:04;5.47;;;1.95;;
42186;SDS011;27858;51.414;0.018;2023-05-10T10:35:42;5.43;;;2.63;;
42186;SDS011;27858;51.414;0.018;2023-05-10T10:38:12;4.05;;;2.35;;
42186;SDS011;27858;51.414;0.018;2023-05-10T10:40:39;6.55;;;3.00;;
42186;SDS011;27858;51.414;0.018;2023-05-10T10:43:22;3.33;;;2.10;;
42186;SDS011;27858;51.414;0.018;2023-05-10T10:46:11;8.18;;;1.98;;
42186;SDS011;27858;51.414;0.018;2023-05-10T10:48:41;5.03;;;2.53;;
42186;SDS011;27858;51.414;0.018;2023-05-10T10:51:14;4.13;;;2.63;;
42186;SDS011;27858;51.414;0.018;2023-05-10T10:53:41;6.20;;;2.72;;
42186;SDS011;27858;51.414;0.018;2023-05-10T10:56:10;4.05;;;2.33;;
42186;SDS011;27858;51.414;0.018;2023-05-10T10:58:40;3.88;;;2.25;;
42186;SDS011;27858;51.414;0.018;2023-05-10T11:01:12;6.00;;;2.70;;
42186;SDS011;27858;51.414;0.018;2023-05-10T11:04:16;3.17;;;2.42;;
42186;SDS011;27858;51.414;0.018;2023-05-10T11:06:41;5.47;;;2.35;;
42186;SDS011;27858;51.414;0.018;2023-05-10T11:09:10;4.53;;;2.47;;
42186;SDS011;27858;51.414;0.018;2023-05-10T11:11:48;6.05;;;2.38;;
42186;SDS011;27858;51.414;0.018;2023-05-10T11:14:24;4.75;;;2.28;;
42186;SDS011;27858;51.414;0.018;2023-05-10T11:16:52;3.08;;;1.88;;
42186;SDS011;27858;51.414;0.018;2023-05-10T11:19:19;4.13;;;2.08;;
42186;SDS011;27858;51.414;0.018;2023-05-10T11:21:53;2.58;;;1.75;;
42186;SDS011;27858;51.414;0.018;2023-05-10T11:24:39;4.78;;;2.10;;
42186;SDS011;27858;51.414;0.018;2023-05-10T11:27:06;4.07;;;2.15;;
42186;SDS011;27858;51.414;0.018;2023-05-10T11:29:34;7.78;;;1.90;;
42186;SDS011;27858;51.414;0.018;2023-05-10T11:32:01;2.75;;;1.63;;
42186;SDS011;27858;51.414;0.018;2023-05-10T11:34:29;8.85;;;2.30;;
42186;SDS011;27858;51.414;0.018;2023-05-10T11:36:57;4.38;;;1.85;;
42186;SDS011;27858;51.414;0.018;2023-05-10T11:39:27;3.10;;;1.77;;
42186;SDS011;27858;51.414;0.018;2023-05-10T11:41:55;7.32;;;1.95;;
42186;SDS011;27858;51.414;0.018;2023-05-10T11:44:24;4.30;;;2.08;;
42186;SDS011;27858;51.414;0.018;2023-05-10T11:46:58;8.95;;;2.55;;
42186;SDS011;27858;51.414;0.018;2023-05-10T11:49:28;1.65;;;1.48;;
42186;SDS011;27858;51.414;0.018;2023-05-10T11:52:05;5.47;;;1.92;;
42186;SDS011;27858;51.414;0.018;2023-05-10T11:54:35;5.38;;;1.92;;
42186;SDS011;27858;51.414;0.018;2023-05-10T11:57:02;2.60;;;1.35;;
42186;SDS011;27858;51.414;0.018;2023-05-10T11:59:29;2.53;;;1.40;;
42186;SDS011;27858;51.414;0.018;2023-05-10T12:01:56;2.47;;;1.42;;
42186;SDS011;27858;51.414;0.018;2023-05-10T12:04:23;2.42;;;1.38;;
42186;SDS011;27858;51.414;0.018;2023-05-10T12:06:50;2.17;;;1.35;;
42186;SDS011;27858;51.414;0.018;2023-05-10T12:09:17;4.20;;;1.25;;
42186;SDS011;27858;51.414;0.018;2023-05-10T12:12:00;1.95;;;1.30;;
42186;SDS011;27858;51.414;0.018;2023-05-10T12:14:28;1.85;;;1.17;;
42186;SDS011;27858;51.414;0.018;2023-05-10T12:16:59;4.38;;;1.55;;
42186;SDS011;27858;51.414;0.018;2023-05-10T12:19:26;2.15;;;1.10;;
42186;SDS011;27858;51.414;0.018;2023-05-10T12:21:53;2.30;;;1.42;;
42186;SDS011;27858;51.414;0.018;2023-05-10T12:24:20;3.75;;;1.65;;
42186;SDS011;27858;51.414;0.018;2023-05-10T12:26:47;5.00;;;2.17;;
42186;SDS011;27858;51.414;0.018;2023-05-10T12:29:15;4.78;;;1.85;;
42186;SDS011;27858;51.414;0.018;2023-05-10T12:34:26;5.72;;;1.55;;
42186;SDS011;27858;51.414;0.018;2023-05-10T12:36:58;3.90;;;1.50;;
42186;SDS011;27858;51.414;0.018;2023-05-10T12:39:26;2.45;;;1.48;;
42186;SDS011;27858;51.414;0.018;2023-05-10T12:42:03;7.20;;;1.75;;
42186;SDS011;27858;51.414;0.018;2023-05-10T12:44:29;4.95;;;1.50;;
42186;SDS011;27858;51.414;0.018;2023-05-10T12:46:56;4.13;;;1.63;;
42186;SDS011;27858;51.414;0.018;2023-05-10T12:49:23;2.53;;;1.23;;
42186;SDS011;27858;51.414;0.018;2023-05-10T12:51:51;3.75;;;1.17;;
42186;SDS011;27858;51.414;0.018;2023-05-10T12:54:17;3.30;;;1.80;;
42186;SDS011;27858;51.414;0.018;2023-05-10T12:56:44;5.25;;;1.38;;
42186;SDS011;27858;51.414;0.018;2023-05-10T12:59:11;3.55;;;1.67;;
42186;SDS011;27858;51.414;0.018;2023-05-10T13:01:37;2.85;;;1.05;;
42186;SDS011;27858;51.414;0.018;2023-05-10T13:04:04;3.38;;;1.42;;
42186;SDS011;27858;51.414;0.018;2023-05-10T13:06:31;3.15;;;1.17;;
42186;SDS011;27858;51.414;0.018;2023-05-10T13:08:58;3.90;;;1.63;;
42186;SDS011;27858;51.414;0.018;2023-05-10T13:11:25;3.55;;;1.30;;
42186;SDS011;27858;51.414;0.018;2023-05-10T13:13:54;3.10;;;1.38;;
42186;SDS011;27858;51.414;0.018;2023-05-10T13:16:21;5.72;;;2.03;;
42186;SDS011;27858;51.414;0.018;2023-05-10T13:18:48;4.30;;;1.85;;
42186;SDS011;27858;51.414;0.018;2023-05-10T13:21:15;5.03;;;2.08;;
42186;SDS011;27858;51.414;0.018;2023-05-10T13:23:42;3.63;;;1.90;;
42186;SDS011;27858;51.414;0.018;2023-05-10T13:26:09;5.03;;;2.35;;
42186;SDS011;27858;51.414;0.018;2023-05-10T13:28:36;3.72;;;1.80;;
42186;SDS011;27858;51.414;0.018;2023-05-10T13:31:04;3.80;;;2.22;;
42186;SDS011;27858;51.414;0.018;2023-05-10T13:33:31;6.35;;;1.98;;
42186;SDS011;27858;51.414;0.018;2023-05-10T13:35:58;3.72;;;1.92;;
42186;SDS011;27858;51.414;0.018;2023-05-10T13:38:25;3.78;;;2.28;;
42186;SDS011;27858;51.414;0.018;2023-05-10T13:40:52;4.70;;;1.65;;
42186;SDS011;27858;51.414;0.018;2023-05-10T13:43:19;4.28;;;1.63;;
42186;SDS011;27858;51.414;0.018;2023-05-10T13:45:46;3.55;;;1.50;;
42186;SDS011;27858;51.414;0.018;2023-05-10T13:48:13;4.55;;;1.95;;
42186;SDS011;27858;51.414;0.018;2023-05-10T13:50:39;3.25;;;1.85;;
42186;SDS011;27858;51.414;0.018;2023-05-10T13:53:06;7.82;;;1.83;;
42186;SDS011;27858;51.414;0.018;2023-05-10T13:55:33;6.00;;;1.73;;
42186;SDS011;27858;51.414;0.018;2023-05-10T13:58:00;3.67;;;1.83;;
42186;SDS011;27858;51.414;0.018;2023-05-10T14:00:29;4.50;;;1.23;;
42186;SDS011;27858;51.414;0.018;2023-05-10T14:02:56;2.20;;;1.35;;
42186;SDS011;27858;51.414;0.018;2023-05-10T14:05:24;5.32;;;1.38;;
42186;SDS011;27858;51.414;0.018;2023-05-10T14:07:53;4.32;;;1.73;;
42186;SDS011;27858;51.414;0.018;2023-05-10T14:10:21;3.13;;;1.20;;
42186;SDS011;27858;51.414;0.018;2023-05-10T14:12:49;4.85;;;2.00;;
42186;SDS011;27858;51.414;0.018;2023-05-10T14:15:16;3.42;;;1.30;;
42186;SDS011;27858;51.414;0.018;2023-05-10T14:17:43;4.57;;;1.48;;
42186;SDS011;27858;51.414;0.018;2023-05-10T14:20:10;6.97;;;1.88;;
42186;SDS011;27858;51.414;0.018;2023-05-10T14:22:37;3.95;;;1.48;;
42186;SDS011;27858;51.414;0.018;2023-05-10T14:25:04;4.22;;;1.30;;
42186;SDS011;27858;51.414;0.018;2023-05-10T14:27:31;1.05;;;0.88;;
42186;SDS011;27858;51.414;0.018;2023-05-10T14:29:58;8.13;;;1.83;;
42186;SDS011;27858;51.414;0.018;2023-05-10T14:32:25;4.65;;;1.17;;
42186;SDS011;27858;51.414;0.018;2023-05-10T14:34:53;6.60;;;1.83;;
42186;SDS011;27858;51.414;0.018;2023-05-10T14:37:20;3.33;;;1.13;;
42186;SDS011;27858;51.414;0.018;2023-05-10T14:39:47;2.63;;;1.25;;
42186;SDS011;27858;51.414;0.018;2023-05-10T14:42:13;2.85;;;1.40;;
42186;SDS011;27858;51.414;0.018;2023-05-10T14:44:40;7.88;;;1.92;;
42186;SDS011;27858;51.414;0.018;2023-05-10T14:47:07;3.90;;;1.75;;
42186;SDS011;27858;51.414;0.018;2023-05-10T14:49:36;2.25;;;1.50;;
42186;SDS011;27858;51.414;0.018;2023-05-10T14:52:03;3.45;;;1.77;;
42186;SDS011;27858;51.414;0.018;2023-05-10T14:54:29;1.52;;;1.15;;
42186;SDS011;27858;51.414;0.018;2023-05-10T14:56:56;2.55;;;1.45;;
42186;SDS011;27858;51.414;0.018;2023-05-10T14:59:23;3.25;;;1.48;;
42186;SDS011;27858;51.414;0.018;2023-05-10T15:01:50;3.33;;;1.10;;
42186;SDS011;27858;51.414;0.018;2023-05-10T15:04:18;4.50;;;1.60;;
42186;SDS011;27858;51.414;0.018;2023-05-10T15:06:46;2.00;;;1.30;;
42186;SDS011;27858;51.414;0.018;2023-05-10T15:09:12;2.03;;;1.10;;
42186;SDS011;27858;51.414;0.018;2023-05-10T15:11:39;4.30;;;1.60;;
42186;SDS011;27858;51.414;0.018;2023-05-10T15:14:06;1.48;;;1.10;;
42186;SDS011;27858;51.414;0.018;2023-05-10T15:16:33;4.50;;;1.00;;
42186;SDS011;27858;51.414;0.018;2023-05-10T15:19:01;1.20;;;0.82;;
42186;SDS011;27858;51.414;0.018;2023-05-10T15:21:28;5.15;;;1.90;;
42186;SDS011;27858;51.414;0.018;2023-05-10T15:26:27;4.32;;;1.20;;
42186;SDS011;27858;51.414;0.018;2023-05-10T15:28:54;2.72;;;1.48;;
42186;SDS011;27858;51.414;0.018;2023-05-10T15:31:21;3.78;;;1.40;;
42186;SDS011;27858;51.414;0.018;2023-05-10T15:33:47;2.63;;;0.98;;
42186;SDS011;27858;51.414;0.018;2023-05-10T15:36:14;2.55;;;1.10;;
42186;SDS011;27858;51.414;0.018;2023-05-10T15:38:43;5.75;;;1.67;;
42186;SDS011;27858;51.414;0.018;2023-05-10T15:41:10;4.15;;;1.65;;
42186;SDS011;27858;51.414;0.018;2023-05-10T15:43:37;4.05;;;1.40;;
42186;SDS011;27858;51.414;0.018;2023-05-10T15:46:06;2.63;;;1.20;;
42186;SDS011;27858;51.414;0.018;2023-05-10T15:48:32;2.85;;;0.98;;
42186;SDS011;27858;51.414;0.018;2023-05-10T15:50:59;5.82;;;1.58;;
42186;SDS011;27858;51.414;0.018;2023-05-10T15:53:26;0.73;;;0.73;;
42186;SDS011;27858;51.414;0.018;2023-05-10T15:55:53;1.67;;;1.08;;
42186;SDS011;27858;51.414;0.018;2023-05-10T15:58:20;4.25;;;1.67;;
42186;SDS011;27858;51.414;0.018;2023-05-10T16:00:48;3.58;;;1.38;;
42186;SDS011;27858;51.414;0.018;2023-05-10T16:03:17;4.05;;;1.52;;
42186;SDS011;27858;51.414;0.018;2023-05-10T16:05:44;1.55;;;1.10;;
42186;SDS011;27858;51.414;0.018;2023-05-10T16:08:16;2.35;;;1.20;;
42186;SDS011;27858;51.414;0.018;2023-05-10T16:10:43;4.85;;;1.63;;
42186;SDS011;27858;51.414;0.018;2023-05-10T16:13:10;2.22;;;1.00;;
42186;SDS011;27858;51.414;0.018;2023-05-10T16:15:37;5.57;;;1.70;;
42186;SDS011;27858;51.414;0.018;2023-05-10T16:18:04;2.58;;;1.17;;
42186;SDS011;27858;51.414;0.018;2023-05-10T16:20:31;5.22;;;1.35;;
42186;SDS011;27858;51.414;0.018;2023-05-10T16:23:00;2.88;;;1.15;;
42186;SDS011;27858;51.414;0.018;2023-05-10T16:25:31;2.38;;;1.17;;
42186;SDS011;27858;51.414;0.018;2023-05-10T16:27:59;2.97;;;1.13;;
42186;SDS011;27858;51.414;0.018;2023-05-10T16:30:26;1.90;;;1.10;;
42186;SDS011;27858;51.414;0.018;2023-05-10T16:32:55;1.67;;;1.20;;
42186;SDS011;27858;51.414;0.018;2023-05-10T16:35:23;2.78;;;1.20;;
42186;SDS011;27858;51.414;0.018;2023-05-10T16:37:50;2.47;;;1.20;;
42186;SDS011;27858;51.414;0.018;2023-05-10T16:40:17;3.47;;;1.10;;
42186;SDS011;27858;51.414;0.018;2023-05-10T16:42:44;1.45;;;1.20;;
42186;SDS011;27858;51.414;0.018;2023-05-10T16:45:11;2.42;;;1.15;;
42186;SDS011;27858;51.414;0.018;2023-05-10T16:47:39;2.92;;;1.23;;
42186;SDS011;27858;51.414;0.018;2023-05-10T16:50:06;1.67;;;1.05;;
42186;SDS011;27858;51.414;0.018;2023-05-10T16:52:34;8.57;;;2.15;;
42186;SDS011;27858;51.414;0.018;2023-05-10T16:55:01;4.30;;;1.65;;
42186;SDS011;27858;51.414;0.018;2023-05-10T16:57:31;2.20;;;1.25;;
42186;SDS011;27858;51.414;0.018;2023-05-10T16:59:58;5.38;;;1.33;;
42186;SDS011;27858;51.414;0.018;2023-05-10T17:02:25;8.65;;;1.35;;
42186;SDS011;27858;51.414;0.018;2023-05-10T17:04:52;4.20;;;1.58;;
42186;SDS011;27858;51.414;0.018;2023-05-10T17:07:21;2.50;;;0.85;;
42186;SDS011;27858;51.414;0.018;2023-05-10T17:09:51;3.33;;;1.00;;
42186;SDS011;27858;51.414;0.018;2023-05-10T17:12:18;1.90;;;0.65;;
42186;SDS011;27858;51.414;0.018;2023-05-10T17:14:44;6.25;;;1.70;;
42186;SDS011;27858;51.414;0.018;2023-05-10T17:17:11;2.60;;;1.17;;
42186;SDS011;27858;51.414;0.018;2023-05-10T17:19:38;5.10;;;1.73;;
42186;SDS011;27858;51.414;0.018;2023-05-10T17:22:05;3.08;;;1.23;;
42186;SDS011;27858;51.414;0.018;2023-05-10T17:24:32;4.55;;;1.30;;
42186;SDS011;27858;51.414;0.018;2023-05-10T17:26:58;2.08;;;0.98;;
42186;SDS011;27858;51.414;0.018;2023-05-10T17:29:26;4.13;;;1.40;;
42186;SDS011;27858;51.414;0.018;2023-05-10T17:31:53;3.53;;;1.83;;
42186;SDS011;27858;51.414;0.018;2023-05-10T17:34:20;2.25;;;1.15;;
42186;SDS011;27858;51.414;0.018;2023-05-10T17:36:47;2.95;;;1.15;;
42186;SDS011;27858;51.414;0.018;2023-05-10T17:39:14;1.95;;;0.93;;
42186;SDS011;27858;51.414;0.018;2023-05-10T17:41:41;1.70;;;1.02;;
42186;SDS011;27858;51.414;0.018;2023-05-10T17:44:08;2.33;;;1.00;;
42186;SDS011;27858;51.414;0.018;2023-05-10T17:46:34;1.98;;;1.25;;
42186;SDS011;27858;51.414;0.018;2023-05-10T17:49:01;1.65;;;1.08;;
42186;SDS011;27858;51.414;0.018;2023-05-10T17:51:28;3.13;;;0.95;;
42186;SDS011;27858;51.414;0.018;2023-05-10T17:53:55;1.63;;;1.08;;
42186;SDS011;27858;51.414;0.018;2023-05-10T17:56:22;1.60;;;1.10;;
42186;SDS011;27858;51.414;0.018;2023-05-10T17:58:49;6.57;;;1.40;;
42186;SDS011;27858;51.414;0.018;2023-05-10T18:01:16;1.92;;;1.58;;
42186;SDS011;27858;51.414;0.018;2023-05-10T18:03:43;8.73;;;1.70;;
42186;SDS011;27858;51.414;0.018;2023-05-10T18:06:09;2.40;;;1.25;;
42186;SDS011;27858;51.414;0.018;2023-05-10T18:08:36;2.28;;;0.82;;
42186;SDS011;27858;51.414;0.018;2023-05-10T18:11:03;2.83;;;0.77;;
42186;SDS011;27858;51.414;0.018;2023-05-10T18:13:30;1.83;;;1.02;;
42186;SDS011;27858;51.414;0.018;2023-05-10T18:15:57;3.13;;;1.40;;
42186;SDS011;27858;51.414;0.018;2023-05-10T18:18:24;5.97;;;1.77;;
42186;SDS011;27858;51.414;0.018;2023-05-10T18:20:51;1.50;;;0.73;;
42186;SDS011;27858;51.414;0.018;2023-05-10T18:23:23;4.53;;;1.70;;
42186;SDS011;27858;51.414;0.018;2023-05-10T18:25:50;3.95;;;1.17;;
42186;SDS011;27858;51.414;0.018;2023-05-10T18:28:17;2.22;;;1.50;;
42186;SDS011;27858;51.414;0.018;2023-05-10T18:30:44;2.30;;;1.25;;
42186;SDS011;27858;51.414;0.018;2023-05-10T18:33:11;3.65;;;0.90;;
42186;SDS011;27858;51.414;0.018;2023-05-10T18:35:38;5.97;;;1.90;;
42186;SDS011;27858;51.414;0.018;2023-05-10T18:38:08;2.78;;;1.27;;
42186;SDS011;27858;51.414;0.018;2023-05-10T18:40:38;2.25;;;1.33;;
42186;SDS011;27858;51.414;0.018;2023-05-10T18:43:06;3.15;;;1.90;;
42186;SDS011;27858;51.414;0.018;2023-05-10T18:45:33;3.38;;;1.40;;
42186;SDS011;27858;51.414;0.018;2023-05-10T18:48:00;5.43;;;1.77;;
42186;SDS011;27858;51.414;0.018;2023-05-10T18:50:27;2.97;;;1.40;;
42186;SDS011;27858;51.414;0.018;2023-05-10T18:52:54;3.55;;;1.65;;
42186;SDS011;27858;51.414;0.018;2023-05-10T18:55:23;3.10;;;1.45;;
42186;SDS011;27858;51.414;0.018;2023-05-10T18:57:51;1.80;;;1.30;;
42186;SDS011;27858;51.414;0.018;2023-05-10T19:00:17;7.25;;;2.10;;
42186;SDS011;27858;51.414;0.018;2023-05-10T19:02:45;2.88;;;1.52;;
42186;SDS011;27858;51.414;0.018;2023-05-10T19:05:13;4.03;;;1.50;;